sensor_id;sensor_type;location;lat;lon;timestamp;P1;durP1;ratioP1;P2;durP2;ratioP2
77222;SDS011;66218;48.928;9.140;2023-04-15T00:01:17;4.45;;;2.17;;
77222;SDS011;66218;48.928;9.140;2023-04-15T00:03:43;3.67;;;2.25;;
77222;SDS011;66218;48.928;9.140;2023-04-15T00:06:09;2.22;;;1.75;;
77222;SDS011;66218;48.928;9.140;2023-04-15T00:08:34;4.15;;;2.00;;
77222;SDS011;66218;48.928;9.140;2023-04-15T00:10:59;4.30;;;2.00;;
77222;SDS011;66218;48.928;9.140;2023-04-15T00:13:26;4.70;;;3.00;;
77222;SDS011;66218;48.928;9.140;2023-04-15T00:15:52;1.58;;;1.25;;
77222;SDS011;66218;48.928;9.140;2023-04-15T00:18:17;7.63;;;2.63;;
77222;SDS011;66218;48.928;9.140;2023-04-15T00:20:42;5.30;;;2.25;;
77222;SDS011;66218;48.928;9.140;2023-04-15T00:23:08;5.35;;;2.58;;
77222;SDS011;66218;48.928;9.140;2023-04-15T00:25:33;2.47;;;2.10;;
77222;SDS011;66218;48.928;9.140;2023-04-15T00:27:58;5.10;;;1.98;;
77222;SDS011;66218;48.928;9.140;2023-04-15T00:30:24;3.17;;;1.65;;
77222;SDS011;66218;48.928;9.140;2023-04-15T00:32:50;2.22;;;1.30;;
77222;SDS011;66218;48.928;9.140;2023-04-15T00:35:15;3.80;;;2.20;;
77222;SDS011;66218;48.928;9.140;2023-04-15T00:37:41;1.35;;;1.20;;
77222;SDS011;66218;48.928;9.140;2023-04-15T00:40:07;2.72;;;2.20;;
77222;SDS011;66218;48.928;9.140;2023-04-15T00:42:41;1.88;;;1.40;;
77222;SDS011;66218;48.928;9.140;2023-04-15T00:45:06;8.13;;;2.00;;
77222;SDS011;66218;48.928;9.140;2023-04-15T00:47:32;2.97;;;2.58;;
77222;SDS011;66218;48.928;9.140;2023-04-15T00:50:00;5.47;;;2.58;;
77222;SDS011;66218;48.928;9.140;2023-04-15T00:52:25;4.40;;;1.83;;
77222;SDS011;66218;48.928;9.140;2023-04-15T00:54:51;8.55;;;2.80;;
77222;SDS011;66218;48.928;9.140;2023-04-15T00:57:17;3.08;;;1.77;;
77222;SDS011;66218;48.928;9.140;2023-04-15T00:59:43;9.57;;;2.65;;
77222;SDS011;66218;48.928;9.140;2023-04-15T01:02:08;4.25;;;2.17;;
77222;SDS011;66218;48.928;9.140;2023-04-15T01:04:34;6.25;;;1.92;;
77222;SDS011;66218;48.928;9.140;2023-04-15T01:06:59;4.03;;;2.35;;
77222;SDS011;66218;48.928;9.140;2023-04-15T01:09:25;3.35;;;1.92;;
77222;SDS011;66218;48.928;9.140;2023-04-15T01:11:51;4.18;;;2.58;;
77222;SDS011;66218;48.928;9.140;2023-04-15T01:14:16;5.32;;;1.98;;
77222;SDS011;66218;48.928;9.140;2023-04-15T01:16:42;3.58;;;2.90;;
77222;SDS011;66218;48.928;9.140;2023-04-15T01:19:09;7.63;;;3.58;;
77222;SDS011;66218;48.928;9.140;2023-04-15T01:21:38;2.65;;;1.77;;
77222;SDS011;66218;48.928;9.140;2023-04-15T01:24:05;4.25;;;1.80;;
77222;SDS011;66218;48.928;9.140;2023-04-15T01:26:34;2.55;;;2.05;;
77222;SDS011;66218;48.928;9.140;2023-04-15T01:29:02;4.00;;;2.83;;
77222;SDS011;66218;48.928;9.140;2023-04-15T01:31:27;4.82;;;2.22;;
77222;SDS011;66218;48.928;9.140;2023-04-15T01:33:53;6.97;;;2.58;;
77222;SDS011;66218;48.928;9.140;2023-04-15T01:36:18;5.13;;;2.80;;
77222;SDS011;66218;48.928;9.140;2023-04-15T01:38:43;4.88;;;3.17;;
77222;SDS011;66218;48.928;9.140;2023-04-15T01:41:09;4.78;;;1.90;;
77222;SDS011;66218;48.928;9.140;2023-04-15T01:43:35;6.57;;;2.50;;
77222;SDS011;66218;48.928;9.140;2023-04-15T01:46:01;2.30;;;1.35;;
77222;SDS011;66218;48.928;9.140;2023-04-15T01:48:26;4.10;;;2.22;;
77222;SDS011;66218;48.928;9.140;2023-04-15T01:50:53;4.68;;;3.45;;
77222;SDS011;66218;48.928;9.140;2023-04-15T01:55:44;5.57;;;1.63;;
77222;SDS011;66218;48.928;9.140;2023-04-15T01:58:10;2.60;;;1.98;;
77222;SDS011;66218;48.928;9.140;2023-04-15T02:00:35;5.78;;;2.53;;
77222;SDS011;66218;48.928;9.140;2023-04-15T02:03:01;5.38;;;1.83;;
77222;SDS011;66218;48.928;9.140;2023-04-15T02:05:26;5.05;;;2.53;;
77222;SDS011;66218;48.928;9.140;2023-04-15T02:07:51;3.45;;;2.25;;
77222;SDS011;66218;48.928;9.140;2023-04-15T02:10:17;4.80;;;2.10;;
77222;SDS011;66218;48.928;9.140;2023-04-15T02:12:43;4.43;;;1.98;;
77222;SDS011;66218;48.928;9.140;2023-04-15T02:15:08;6.35;;;3.17;;
77222;SDS011;66218;48.928;9.140;2023-04-15T02:17:34;4.57;;;2.65;;
77222;SDS011;66218;48.928;9.140;2023-04-15T02:20:03;6.45;;;2.90;;
77222;SDS011;66218;48.928;9.140;2023-04-15T02:22:32;6.57;;;2.33;;
77222;SDS011;66218;48.928;9.140;2023-04-15T02:24:58;4.97;;;3.25;;
77222;SDS011;66218;48.928;9.140;2023-04-15T02:27:23;6.45;;;2.75;;
77222;SDS011;66218;48.928;9.140;2023-04-15T02:29:48;3.40;;;2.80;;
77222;SDS011;66218;48.928;9.140;2023-04-15T02:32:17;3.60;;;2.05;;
77222;SDS011;66218;48.928;9.140;2023-04-15T02:34:42;6.05;;;2.03;;
77222;SDS011;66218;48.928;9.140;2023-04-15T02:37:08;2.95;;;1.77;;
77222;SDS011;66218;48.928;9.140;2023-04-15T02:39:35;3.90;;;2.15;;
77222;SDS011;66218;48.928;9.140;2023-04-15T02:42:01;2.95;;;1.83;;
77222;SDS011;66218;48.928;9.140;2023-04-15T02:44:26;4.15;;;2.58;;
77222;SDS011;66218;48.928;9.140;2023-04-15T02:46:52;4.40;;;2.35;;
77222;SDS011;66218;48.928;9.140;2023-04-15T02:49:19;2.47;;;2.17;;
77222;SDS011;66218;48.928;9.140;2023-04-15T02:51:45;10.70;;;2.47;;
77222;SDS011;66218;48.928;9.140;2023-04-15T02:54:22;3.50;;;1.70;;
77222;SDS011;66218;48.928;9.140;2023-04-15T02:56:48;3.22;;;1.75;;
77222;SDS011;66218;48.928;9.140;2023-04-15T02:59:14;5.22;;;2.15;;
77222;SDS011;66218;48.928;9.140;2023-04-15T03:01:40;4.07;;;2.30;;
77222;SDS011;66218;48.928;9.140;2023-04-15T03:04:05;3.13;;;2.60;;
77222;SDS011;66218;48.928;9.140;2023-04-15T03:06:34;8.45;;;2.60;;
77222;SDS011;66218;48.928;9.140;2023-04-15T03:09:00;3.83;;;2.20;;
77222;SDS011;66218;48.928;9.140;2023-04-15T03:11:26;4.32;;;2.95;;
77222;SDS011;66218;48.928;9.140;2023-04-15T03:13:52;6.20;;;3.63;;
77222;SDS011;66218;48.928;9.140;2023-04-15T03:16:17;4.78;;;2.40;;
77222;SDS011;66218;48.928;9.140;2023-04-15T03:18:42;4.18;;;2.20;;
77222;SDS011;66218;48.928;9.140;2023-04-15T03:21:08;2.78;;;1.80;;
77222;SDS011;66218;48.928;9.140;2023-04-15T03:23:33;8.43;;;3.08;;
77222;SDS011;66218;48.928;9.140;2023-04-15T03:26:00;5.57;;;2.05;;
77222;SDS011;66218;48.928;9.140;2023-04-15T03:28:26;3.40;;;1.55;;
77222;SDS011;66218;48.928;9.140;2023-04-15T03:30:53;4.00;;;2.15;;
77222;SDS011;66218;48.928;9.140;2023-04-15T03:33:18;3.05;;;2.38;;
77222;SDS011;66218;48.928;9.140;2023-04-15T03:35:44;3.92;;;1.85;;
77222;SDS011;66218;48.928;9.140;2023-04-15T03:38:09;5.55;;;2.35;;
77222;SDS011;66218;48.928;9.140;2023-04-15T03:40:35;2.67;;;2.13;;
77222;SDS011;66218;48.928;9.140;2023-04-15T03:43:00;2.30;;;1.00;;
77222;SDS011;66218;48.928;9.140;2023-04-15T03:45:26;3.17;;;2.45;;
77222;SDS011;66218;48.928;9.140;2023-04-15T03:47:51;7.85;;;2.40;;
77222;SDS011;66218;48.928;9.140;2023-04-15T03:50:16;2.95;;;1.80;;
77222;SDS011;66218;48.928;9.140;2023-04-15T03:52:42;3.75;;;2.10;;
77222;SDS011;66218;48.928;9.140;2023-04-15T03:55:08;2.45;;;1.90;;
77222;SDS011;66218;48.928;9.140;2023-04-15T03:57:34;1.98;;;1.40;;
77222;SDS011;66218;48.928;9.140;2023-04-15T04:00:03;4.38;;;2.72;;
77222;SDS011;66218;48.928;9.140;2023-04-15T04:02:29;3.10;;;2.38;;
77222;SDS011;66218;48.928;9.140;2023-04-15T04:04:55;3.88;;;2.20;;
77222;SDS011;66218;48.928;9.140;2023-04-15T04:07:21;2.47;;;2.00;;
77222;SDS011;66218;48.928;9.140;2023-04-15T04:09:47;2.50;;;1.90;;
77222;SDS011;66218;48.928;9.140;2023-04-15T04:12:13;9.50;;;3.50;;
77222;SDS011;66218;48.928;9.140;2023-04-15T04:14:38;2.72;;;2.00;;
77222;SDS011;66218;48.928;9.140;2023-04-15T04:17:03;2.53;;;1.77;;
77222;SDS011;66218;48.928;9.140;2023-04-15T04:19:28;2.00;;;1.70;;
77222;SDS011;66218;48.928;9.140;2023-04-15T04:21:54;4.90;;;2.42;;
77222;SDS011;66218;48.928;9.140;2023-04-15T04:24:19;7.13;;;2.65;;
77222;SDS011;66218;48.928;9.140;2023-04-15T04:26:45;1.98;;;1.75;;
77222;SDS011;66218;48.928;9.140;2023-04-15T04:29:10;4.18;;;2.50;;
77222;SDS011;66218;48.928;9.140;2023-04-15T04:31:36;4.55;;;2.25;;
77222;SDS011;66218;48.928;9.140;2023-04-15T04:34:01;3.78;;;2.40;;
77222;SDS011;66218;48.928;9.140;2023-04-15T04:36:26;5.57;;;3.35;;
77222;SDS011;66218;48.928;9.140;2023-04-15T04:38:52;3.13;;;2.05;;
77222;SDS011;66218;48.928;9.140;2023-04-15T04:41:17;7.13;;;3.80;;
77222;SDS011;66218;48.928;9.140;2023-04-15T04:43:42;4.00;;;2.40;;
77222;SDS011;66218;48.928;9.140;2023-04-15T04:46:08;2.10;;;1.60;;
77222;SDS011;66218;48.928;9.140;2023-04-15T04:48:34;2.92;;;1.73;;
77222;SDS011;66218;48.928;9.140;2023-04-15T04:50:59;4.63;;;1.90;;
77222;SDS011;66218;48.928;9.140;2023-04-15T04:53:25;5.57;;;2.97;;
77222;SDS011;66218;48.928;9.140;2023-04-15T04:55:51;12.07;;;2.17;;
77222;SDS011;66218;48.928;9.140;2023-04-15T04:58:17;2.33;;;1.70;;
77222;SDS011;66218;48.928;9.140;2023-04-15T05:00:42;3.55;;;1.70;;
77222;SDS011;66218;48.928;9.140;2023-04-15T05:03:08;3.10;;;1.98;;
77222;SDS011;66218;48.928;9.140;2023-04-15T05:05:33;3.90;;;1.70;;
77222;SDS011;66218;48.928;9.140;2023-04-15T05:08:00;7.40;;;2.80;;
77222;SDS011;66218;48.928;9.140;2023-04-15T05:10:26;4.57;;;1.92;;
77222;SDS011;66218;48.928;9.140;2023-04-15T05:12:51;2.85;;;2.28;;
77222;SDS011;66218;48.928;9.140;2023-04-15T05:15:16;5.65;;;3.08;;
77222;SDS011;66218;48.928;9.140;2023-04-15T05:17:42;6.10;;;2.88;;
77222;SDS011;66218;48.928;9.140;2023-04-15T05:20:07;2.90;;;2.10;;
77222;SDS011;66218;48.928;9.140;2023-04-15T05:22:33;3.78;;;2.25;;
77222;SDS011;66218;48.928;9.140;2023-04-15T05:24:59;4.10;;;2.03;;
77222;SDS011;66218;48.928;9.140;2023-04-15T05:27:24;4.93;;;2.08;;
77222;SDS011;66218;48.928;9.140;2023-04-15T05:29:49;3.60;;;2.33;;
77222;SDS011;66218;48.928;9.140;2023-04-15T05:32:15;3.58;;;2.22;;
77222;SDS011;66218;48.928;9.140;2023-04-15T05:34:41;3.30;;;2.30;;
77222;SDS011;66218;48.928;9.140;2023-04-15T05:37:06;2.53;;;2.15;;
77222;SDS011;66218;48.928;9.140;2023-04-15T05:39:31;6.30;;;1.88;;
77222;SDS011;66218;48.928;9.140;2023-04-15T05:41:57;2.50;;;1.95;;
77222;SDS011;66218;48.928;9.140;2023-04-15T05:44:24;2.30;;;1.65;;
77222;SDS011;66218;48.928;9.140;2023-04-15T05:46:49;2.88;;;1.48;;
77222;SDS011;66218;48.928;9.140;2023-04-15T05:49:14;3.75;;;2.28;;
77222;SDS011;66218;48.928;9.140;2023-04-15T05:51:40;3.38;;;1.48;;
77222;SDS011;66218;48.928;9.140;2023-04-15T05:54:05;1.25;;;1.15;;
77222;SDS011;66218;48.928;9.140;2023-04-15T05:56:30;3.75;;;2.28;;
77222;SDS011;66218;48.928;9.140;2023-04-15T05:58:56;6.85;;;1.58;;
77222;SDS011;66218;48.928;9.140;2023-04-15T06:01:21;2.78;;;1.67;;
77222;SDS011;66218;48.928;9.140;2023-04-15T06:03:46;3.53;;;2.53;;
77222;SDS011;66218;48.928;9.140;2023-04-15T06:06:12;4.18;;;1.83;;
77222;SDS011;66218;48.928;9.140;2023-04-15T06:08:39;5.15;;;1.52;;
77222;SDS011;66218;48.928;9.140;2023-04-15T06:11:04;4.13;;;2.25;;
77222;SDS011;66218;48.928;9.140;2023-04-15T06:13:30;2.78;;;1.48;;
77222;SDS011;66218;48.928;9.140;2023-04-15T06:15:55;3.92;;;1.80;;
77222;SDS011;66218;48.928;9.140;2023-04-15T06:18:20;4.47;;;2.10;;
77222;SDS011;66218;48.928;9.140;2023-04-15T06:20:46;4.93;;;2.42;;
77222;SDS011;66218;48.928;9.140;2023-04-15T06:23:11;3.30;;;2.10;;
77222;SDS011;66218;48.928;9.140;2023-04-15T06:25:36;5.47;;;2.78;;
77222;SDS011;66218;48.928;9.140;2023-04-15T06:28:02;4.67;;;2.77;;
77222;SDS011;66218;48.928;9.140;2023-04-15T06:30:27;5.93;;;3.15;;
77222;SDS011;66218;48.928;9.140;2023-04-15T06:32:53;5.75;;;2.80;;
77222;SDS011;66218;48.928;9.140;2023-04-15T06:35:19;6.78;;;2.78;;
77222;SDS011;66218;48.928;9.140;2023-04-15T06:37:44;3.75;;;2.60;;
77222;SDS011;66218;48.928;9.140;2023-04-15T06:40:10;6.53;;;2.97;;
77222;SDS011;66218;48.928;9.140;2023-04-15T06:42:35;6.85;;;2.58;;
77222;SDS011;66218;48.928;9.140;2023-04-15T06:45:02;4.75;;;2.38;;
77222;SDS011;66218;48.928;9.140;2023-04-15T06:47:27;4.68;;;3.38;;
77222;SDS011;66218;48.928;9.140;2023-04-15T06:49:53;5.07;;;2.55;;
77222;SDS011;66218;48.928;9.140;2023-04-15T06:52:18;13.82;;;3.13;;
77222;SDS011;66218;48.928;9.140;2023-04-15T06:54:44;4.85;;;3.10;;
77222;SDS011;66218;48.928;9.140;2023-04-15T06:57:09;5.22;;;2.92;;
77222;SDS011;66218;48.928;9.140;2023-04-15T06:59:34;5.63;;;3.13;;
77222;SDS011;66218;48.928;9.140;2023-04-15T07:02:00;4.65;;;2.45;;
77222;SDS011;66218;48.928;9.140;2023-04-15T07:04:25;6.75;;;3.30;;
77222;SDS011;66218;48.928;9.140;2023-04-15T07:06:51;3.72;;;2.65;;
77222;SDS011;66218;48.928;9.140;2023-04-15T07:09:17;5.45;;;3.47;;
77222;SDS011;66218;48.928;9.140;2023-04-15T07:11:43;3.83;;;2.25;;
77222;SDS011;66218;48.928;9.140;2023-04-15T07:14:09;4.80;;;2.72;;
77222;SDS011;66218;48.928;9.140;2023-04-15T07:16:34;3.17;;;2.60;;
77222;SDS011;66218;48.928;9.140;2023-04-15T07:18:59;9.65;;;2.63;;
77222;SDS011;66218;48.928;9.140;2023-04-15T07:21:25;8.30;;;3.42;;
77222;SDS011;66218;48.928;9.140;2023-04-15T07:23:51;5.05;;;2.70;;
77222;SDS011;66218;48.928;9.140;2023-04-15T07:26:17;4.72;;;2.75;;
77222;SDS011;66218;48.928;9.140;2023-04-15T07:28:42;6.57;;;2.83;;
77222;SDS011;66218;48.928;9.140;2023-04-15T07:31:07;5.30;;;3.13;;
77222;SDS011;66218;48.928;9.140;2023-04-15T07:33:33;10.35;;;3.58;;
77222;SDS011;66218;48.928;9.140;2023-04-15T07:35:58;6.43;;;3.15;;
77222;SDS011;66218;48.928;9.140;2023-04-15T07:38:23;9.20;;;3.38;;
77222;SDS011;66218;48.928;9.140;2023-04-15T07:40:49;5.95;;;3.30;;
77222;SDS011;66218;48.928;9.140;2023-04-15T07:43:14;5.47;;;3.17;;
77222;SDS011;66218;48.928;9.140;2023-04-15T07:45:40;5.78;;;3.97;;
77222;SDS011;66218;48.928;9.140;2023-04-15T07:48:05;4.35;;;3.55;;
77222;SDS011;66218;48.928;9.140;2023-04-15T07:50:33;6.10;;;3.13;;
77222;SDS011;66218;48.928;9.140;2023-04-15T07:52:59;4.85;;;3.50;;
77222;SDS011;66218;48.928;9.140;2023-04-15T07:55:24;6.88;;;3.53;;
77222;SDS011;66218;48.928;9.140;2023-04-15T07:57:49;6.15;;;3.50;;
77222;SDS011;66218;48.928;9.140;2023-04-15T08:00:15;5.45;;;2.72;;
77222;SDS011;66218;48.928;9.140;2023-04-15T08:02:43;4.95;;;4.00;;
77222;SDS011;66218;48.928;9.140;2023-04-15T08:05:11;5.88;;;2.63;;
77222;SDS011;66218;48.928;9.140;2023-04-15T08:07:37;8.77;;;3.70;;
77222;SDS011;66218;48.928;9.140;2023-04-15T08:10:04;5.70;;;3.17;;
77222;SDS011;66218;48.928;9.140;2023-04-15T08:12:29;9.15;;;3.38;;
77222;SDS011;66218;48.928;9.140;2023-04-15T08:14:55;9.77;;;3.80;;
77222;SDS011;66218;48.928;9.140;2023-04-15T08:17:26;6.20;;;2.90;;
77222;SDS011;66218;48.928;9.140;2023-04-15T08:20:21;7.30;;;3.10;;
77222;SDS011;66218;48.928;9.140;2023-04-15T08:22:46;5.00;;;3.03;;
77222;SDS011;66218;48.928;9.140;2023-04-15T08:25:15;4.15;;;2.17;;
77222;SDS011;66218;48.928;9.140;2023-04-15T08:27:41;8.88;;;2.33;;
77222;SDS011;66218;48.928;9.140;2023-04-15T08:30:06;4.18;;;2.22;;
77222;SDS011;66218;48.928;9.140;2023-04-15T08:32:32;3.80;;;2.40;;
77222;SDS011;66218;48.928;9.140;2023-04-15T08:34:58;4.35;;;2.83;;
77222;SDS011;66218;48.928;9.140;2023-04-15T08:37:23;6.43;;;2.70;;
77222;SDS011;66218;48.928;9.140;2023-04-15T08:39:48;5.53;;;2.33;;
77222;SDS011;66218;48.928;9.140;2023-04-15T08:42:16;3.22;;;2.47;;
77222;SDS011;66218;48.928;9.140;2023-04-15T08:44:47;3.35;;;2.22;;
77222;SDS011;66218;48.928;9.140;2023-04-15T08:47:13;4.53;;;2.35;;
77222;SDS011;66218;48.928;9.140;2023-04-15T08:52:07;3.78;;;1.70;;
77222;SDS011;66218;48.928;9.140;2023-04-15T08:54:33;4.88;;;2.05;;
77222;SDS011;66218;48.928;9.140;2023-04-15T08:57:00;4.90;;;2.80;;
77222;SDS011;66218;48.928;9.140;2023-04-15T08:59:26;6.78;;;2.50;;
77222;SDS011;66218;48.928;9.140;2023-04-15T09:01:54;4.40;;;2.38;;
77222;SDS011;66218;48.928;9.140;2023-04-15T09:04:21;7.22;;;2.60;;
77222;SDS011;66218;48.928;9.140;2023-04-15T09:06:46;5.13;;;2.70;;
77222;SDS011;66218;48.928;9.140;2023-04-15T09:09:11;7.45;;;2.35;;
77222;SDS011;66218;48.928;9.140;2023-04-15T09:14:03;4.80;;;1.55;;
77222;SDS011;66218;48.928;9.140;2023-04-15T09:19:22;4.30;;;2.45;;
77222;SDS011;66218;48.928;9.140;2023-04-15T09:21:48;4.13;;;2.15;;
77222;SDS011;66218;48.928;9.140;2023-04-15T09:24:15;6.88;;;2.20;;
77222;SDS011;66218;48.928;9.140;2023-04-15T09:26:41;4.78;;;1.98;;
77222;SDS011;66218;48.928;9.140;2023-04-15T09:29:07;3.58;;;1.85;;
77222;SDS011;66218;48.928;9.140;2023-04-15T09:31:34;4.60;;;2.15;;
77222;SDS011;66218;48.928;9.140;2023-04-15T09:36:26;3.58;;;1.67;;
77222;SDS011;66218;48.928;9.140;2023-04-15T09:38:55;2.75;;;1.67;;
77222;SDS011;66218;48.928;9.140;2023-04-15T09:41:21;3.03;;;1.65;;
77222;SDS011;66218;48.928;9.140;2023-04-15T09:43:47;2.85;;;1.88;;
77222;SDS011;66218;48.928;9.140;2023-04-15T09:46:12;4.60;;;2.05;;
77222;SDS011;66218;48.928;9.140;2023-04-15T09:48:37;4.03;;;1.75;;
77222;SDS011;66218;48.928;9.140;2023-04-15T09:51:03;3.85;;;1.95;;
77222;SDS011;66218;48.928;9.140;2023-04-15T09:53:28;4.07;;;1.83;;
77222;SDS011;66218;48.928;9.140;2023-04-15T09:55:59;3.78;;;1.52;;
77222;SDS011;66218;48.928;9.140;2023-04-15T09:58:27;3.20;;;1.70;;
77222;SDS011;66218;48.928;9.140;2023-04-15T10:00:54;6.13;;;1.92;;
77222;SDS011;66218;48.928;9.140;2023-04-15T10:03:27;3.58;;;2.13;;
77222;SDS011;66218;48.928;9.140;2023-04-15T10:05:56;3.05;;;1.75;;
77222;SDS011;66218;48.928;9.140;2023-04-15T10:08:25;4.00;;;1.80;;
77222;SDS011;66218;48.928;9.140;2023-04-15T10:10:52;2.92;;;2.00;;
77222;SDS011;66218;48.928;9.140;2023-04-15T10:13:19;2.90;;;2.30;;
77222;SDS011;66218;48.928;9.140;2023-04-15T10:15:55;3.38;;;2.45;;
77222;SDS011;66218;48.928;9.140;2023-04-15T10:18:22;5.30;;;2.35;;
77222;SDS011;66218;48.928;9.140;2023-04-15T10:20:50;2.53;;;1.88;;
77222;SDS011;66218;48.928;9.140;2023-04-15T10:23:16;6.30;;;2.75;;
77222;SDS011;66218;48.928;9.140;2023-04-15T10:25:43;4.43;;;1.80;;
77222;SDS011;66218;48.928;9.140;2023-04-15T10:28:10;6.80;;;2.17;;
77222;SDS011;66218;48.928;9.140;2023-04-15T10:30:35;6.13;;;2.20;;
77222;SDS011;66218;48.928;9.140;2023-04-15T10:33:01;5.10;;;2.50;;
77222;SDS011;66218;48.928;9.140;2023-04-15T10:35:28;5.60;;;2.38;;
77222;SDS011;66218;48.928;9.140;2023-04-15T10:37:54;4.50;;;2.33;;
77222;SDS011;66218;48.928;9.140;2023-04-15T10:42:53;6.55;;;2.22;;
77222;SDS011;66218;48.928;9.140;2023-04-15T10:45:19;4.05;;;2.60;;
77222;SDS011;66218;48.928;9.140;2023-04-15T10:47:44;5.88;;;2.50;;
77222;SDS011;66218;48.928;9.140;2023-04-15T10:50:10;3.90;;;1.88;;
77222;SDS011;66218;48.928;9.140;2023-04-15T10:52:36;3.75;;;1.80;;
77222;SDS011;66218;48.928;9.140;2023-04-15T10:55:14;2.40;;;1.85;;
77222;SDS011;66218;48.928;9.140;2023-04-15T10:57:43;3.80;;;1.80;;
77222;SDS011;66218;48.928;9.140;2023-04-15T11:00:10;4.43;;;1.88;;
77222;SDS011;66218;48.928;9.140;2023-04-15T11:05:09;4.30;;;1.88;;
77222;SDS011;66218;48.928;9.140;2023-04-15T11:07:54;4.00;;;1.98;;
77222;SDS011;66218;48.928;9.140;2023-04-15T11:12:58;6.57;;;2.03;;
77222;SDS011;66218;48.928;9.140;2023-04-15T11:18:15;3.78;;;2.10;;
77222;SDS011;66218;48.928;9.140;2023-04-15T11:20:46;5.15;;;2.13;;
77222;SDS011;66218;48.928;9.140;2023-04-15T11:23:14;4.57;;;1.60;;
77222;SDS011;66218;48.928;9.140;2023-04-15T11:25:41;2.10;;;1.30;;
77222;SDS011;66218;48.928;9.140;2023-04-15T11:28:29;4.22;;;1.33;;
77222;SDS011;66218;48.928;9.140;2023-04-15T11:30:56;2.45;;;1.58;;
77222;SDS011;66218;48.928;9.140;2023-04-15T11:33:23;2.60;;;1.35;;
77222;SDS011;66218;48.928;9.140;2023-04-15T11:35:50;1.60;;;1.20;;
77222;SDS011;66218;48.928;9.140;2023-04-15T11:38:18;3.30;;;1.58;;
77222;SDS011;66218;48.928;9.140;2023-04-15T11:40:46;2.55;;;1.40;;
77222;SDS011;66218;48.928;9.140;2023-04-15T11:43:18;2.95;;;1.88;;
77222;SDS011;66218;48.928;9.140;2023-04-15T11:48:33;7.20;;;2.38;;
77222;SDS011;66218;48.928;9.140;2023-04-15T11:51:04;1.65;;;1.35;;
77222;SDS011;66218;48.928;9.140;2023-04-15T11:56:10;1.67;;;1.52;;
77222;SDS011;66218;48.928;9.140;2023-04-15T11:58:40;1.67;;;1.25;;
77222;SDS011;66218;48.928;9.140;2023-04-15T12:03:36;1.40;;;1.02;;
77222;SDS011;66218;48.928;9.140;2023-04-15T12:09:21;3.78;;;1.33;;
77222;SDS011;66218;48.928;9.140;2023-04-15T12:11:47;6.85;;;1.73;;
77222;SDS011;66218;48.928;9.140;2023-04-15T12:17:02;3.10;;;1.63;;
77222;SDS011;66218;48.928;9.140;2023-04-15T12:19:36;4.30;;;1.50;;
77222;SDS011;66218;48.928;9.140;2023-04-15T12:22:03;2.40;;;1.65;;
77222;SDS011;66218;48.928;9.140;2023-04-15T12:24:31;4.68;;;2.13;;
77222;SDS011;66218;48.928;9.140;2023-04-15T12:27:00;3.67;;;1.70;;
77222;SDS011;66218;48.928;9.140;2023-04-15T12:29:28;4.43;;;1.38;;
77222;SDS011;66218;48.928;9.140;2023-04-15T12:31:55;2.75;;;1.38;;
77222;SDS011;66218;48.928;9.140;2023-04-15T12:34:40;0.98;;;0.70;;
77222;SDS011;66218;48.928;9.140;2023-04-15T12:37:08;1.90;;;1.23;;
77222;SDS011;66218;48.928;9.140;2023-04-15T12:39:34;1.52;;;1.20;;
77222;SDS011;66218;48.928;9.140;2023-04-15T12:42:01;2.00;;;1.30;;
77222;SDS011;66218;48.928;9.140;2023-04-15T12:44:28;2.25;;;1.10;;
77222;SDS011;66218;48.928;9.140;2023-04-15T12:46:53;0.90;;;0.82;;
77222;SDS011;66218;48.928;9.140;2023-04-15T12:49:20;2.45;;;1.05;;
77222;SDS011;66218;48.928;9.140;2023-04-15T12:54:13;0.95;;;0.55;;
77222;SDS011;66218;48.928;9.140;2023-04-15T12:56:38;3.92;;;1.17;;
77222;SDS011;66218;48.928;9.140;2023-04-15T12:59:03;1.00;;;0.77;;
77222;SDS011;66218;48.928;9.140;2023-04-15T13:01:29;1.40;;;0.55;;
77222;SDS011;66218;48.928;9.140;2023-04-15T13:03:54;4.13;;;1.08;;
77222;SDS011;66218;48.928;9.140;2023-04-15T13:06:19;0.43;;;0.20;;
77222;SDS011;66218;48.928;9.140;2023-04-15T13:08:45;0.50;;;0.40;;
77222;SDS011;66218;48.928;9.140;2023-04-15T13:11:10;0.73;;;0.50;;
77222;SDS011;66218;48.928;9.140;2023-04-15T13:13:36;0.20;;;0.20;;
77222;SDS011;66218;48.928;9.140;2023-04-15T13:16:01;0.20;;;0.15;;
77222;SDS011;66218;48.928;9.140;2023-04-15T13:18:26;0.10;;;0.10;;
77222;SDS011;66218;48.928;9.140;2023-04-15T13:20:52;0.57;;;0.20;;
77222;SDS011;66218;48.928;9.140;2023-04-15T13:23:18;0.93;;;0.20;;
77222;SDS011;66218;48.928;9.140;2023-04-15T13:25:43;0.10;;;0.10;;
77222;SDS011;66218;48.928;9.140;2023-04-15T13:28:10;0.47;;;0.30;;
77222;SDS011;66218;48.928;9.140;2023-04-15T13:30:36;0.73;;;0.40;;
77222;SDS011;66218;48.928;9.140;2023-04-15T13:33:02;0.40;;;0.28;;
77222;SDS011;66218;48.928;9.140;2023-04-15T13:35:27;2.05;;;0.82;;
77222;SDS011;66218;48.928;9.140;2023-04-15T13:37:53;3.13;;;0.25;;
77222;SDS011;66218;48.928;9.140;2023-04-15T13:40:18;0.70;;;0.30;;
77222;SDS011;66218;48.928;9.140;2023-04-15T13:42:44;0.40;;;0.40;;
77222;SDS011;66218;48.928;9.140;2023-04-15T13:45:10;0.45;;;0.30;;
77222;SDS011;66218;48.928;9.140;2023-04-15T13:47:35;0.85;;;0.25;;
77222;SDS011;66218;48.928;9.140;2023-04-15T13:50:00;0.57;;;0.20;;
77222;SDS011;66218;48.928;9.140;2023-04-15T13:52:26;1.33;;;0.20;;
77222;SDS011;66218;48.928;9.140;2023-04-15T13:54:51;3.15;;;1.08;;
77222;SDS011;66218;48.928;9.140;2023-04-15T13:57:16;0.52;;;0.20;;
77222;SDS011;66218;48.928;9.140;2023-04-15T13:59:42;3.22;;;0.20;;
77222;SDS011;66218;48.928;9.140;2023-04-15T14:02:08;1.10;;;0.43;;
77222;SDS011;66218;48.928;9.140;2023-04-15T14:04:33;1.17;;;0.47;;
77222;SDS011;66218;48.928;9.140;2023-04-15T14:06:59;1.85;;;0.40;;
77222;SDS011;66218;48.928;9.140;2023-04-15T14:09:24;0.82;;;0.20;;
77222;SDS011;66218;48.928;9.140;2023-04-15T14:11:50;0.17;;;0.17;;
77222;SDS011;66218;48.928;9.140;2023-04-15T14:14:15;1.08;;;0.28;;
77222;SDS011;66218;48.928;9.140;2023-04-15T14:16:41;1.70;;;0.40;;
77222;SDS011;66218;48.928;9.140;2023-04-15T14:19:06;0.52;;;0.40;;
77222;SDS011;66218;48.928;9.140;2023-04-15T14:21:31;1.77;;;0.60;;
77222;SDS011;66218;48.928;9.140;2023-04-15T14:23:57;1.77;;;0.38;;
77222;SDS011;66218;48.928;9.140;2023-04-15T14:26:23;0.90;;;0.35;;
77222;SDS011;66218;48.928;9.140;2023-04-15T14:28:48;0.55;;;0.30;;
77222;SDS011;66218;48.928;9.140;2023-04-15T14:31:13;0.57;;;0.50;;
77222;SDS011;66218;48.928;9.140;2023-04-15T14:33:39;0.85;;;0.38;;
77222;SDS011;66218;48.928;9.140;2023-04-15T14:36:05;0.20;;;0.20;;
77222;SDS011;66218;48.928;9.140;2023-04-15T14:38:33;0.60;;;0.35;;
77222;SDS011;66218;48.928;9.140;2023-04-15T14:41:02;0.60;;;0.30;;
77222;SDS011;66218;48.928;9.140;2023-04-15T14:43:28;0.60;;;0.30;;
77222;SDS011;66218;48.928;9.140;2023-04-15T14:45:53;0.20;;;0.20;;
77222;SDS011;66218;48.928;9.140;2023-04-15T14:48:19;2.15;;;0.60;;
77222;SDS011;66218;48.928;9.140;2023-04-15T14:50:45;1.10;;;0.38;;
77222;SDS011;66218;48.928;9.140;2023-04-15T14:53:10;3.25;;;0.32;;
77222;SDS011;66218;48.928;9.140;2023-04-15T14:55:36;1.50;;;0.50;;
77222;SDS011;66218;48.928;9.140;2023-04-15T14:58:01;0.70;;;0.30;;
77222;SDS011;66218;48.928;9.140;2023-04-15T15:00:26;0.52;;;0.30;;
77222;SDS011;66218;48.928;9.140;2023-04-15T15:02:52;0.57;;;0.30;;
77222;SDS011;66218;48.928;9.140;2023-04-15T15:05:17;0.52;;;0.38;;
77222;SDS011;66218;48.928;9.140;2023-04-15T15:07:42;0.28;;;0.10;;
77222;SDS011;66218;48.928;9.140;2023-04-15T15:10:08;1.23;;;0.40;;
77222;SDS011;66218;48.928;9.140;2023-04-15T15:12:33;1.30;;;0.57;;
77222;SDS011;66218;48.928;9.140;2023-04-15T15:14:59;1.15;;;0.63;;
77222;SDS011;66218;48.928;9.140;2023-04-15T15:17:24;1.10;;;0.55;;
77222;SDS011;66218;48.928;9.140;2023-04-15T15:19:50;2.10;;;0.52;;
77222;SDS011;66218;48.928;9.140;2023-04-15T15:22:15;0.20;;;0.20;;